Time;durP1;ratioP1;P1;durP2;ratioP2;P2;SDS_P1;SDS_P2;PMS_P1;PMS_P2;Temp;Humidity;BMP_temperature;BMP_pressure;BME280_temperature;BME280_humidity;BME280_pressure;Samples;Min_cycle;Max_cycle;Signal;HPM_P1;HPM_P2
2021/11/24 00:01:00;;;;;;;35.75;21.17;;;;;;;;;;346109;154;865005;-56
2021/11/24 00:02:02;;;;;;;35.91;19.64;;;;;;;;;;349905;152;857599;-56
2021/11/24 00:03:03;;;;;;;34.52;20.14;;;;;;;;;;351054;151;864585;-56
2021/11/24 00:04:05;;;;;;;31.56;19.64;;;;;;;;;;352894;151;864992;-56
2021/11/24 00:05:06;;;;;;;33.02;19.00;;;;;;;;;;351952;152;864943;-56
2021/11/24 00:06:08;;;;;;;34.84;20.02;;;;;;;;;;351563;151;866170;-56
2021/11/24 00:07:10;;;;;;;35.36;21.36;;;;;;;;;;351344;150;857757;-58
2021/11/24 00:08:12;;;;;;;32.20;19.69;;;;;;;;;;349973;151;865643;-56
2021/11/24 00:09:13;;;;;;;34.41;19.99;;;;;;;;;;351455;151;864854;-57
2021/11/24 00:10:16;;;;;;;35.70;19.95;;;;;;;;;;349576;150;866340;-57
2021/11/24 00:11:18;;;;;;;32.88;20.03;;;;;;;;;;350762;152;866447;-57
2021/11/24 00:12:20;;;;;;;29.80;18.91;;;;;;;;;;352043;152;859340;-57
2021/11/24 00:13:21;;;;;;;31.95;19.86;;;;;;;;;;350946;151;864889;-57
2021/11/24 00:14:23;;;;;;;41.04;21.25;;;;;;;;;;352421;150;865188;-57
2021/11/24 00:15:24;;;;;;;36.19;20.75;;;;;;;;;;352177;151;864846;-56
2021/11/24 00:16:26;;;;;;;35.53;19.64;;;;;;;;;;350684;150;864861;-57
2021/11/24 00:17:28;;;;;;;33.36;20.84;;;;;;;;;;358618;148;865106;-56
2021/11/24 00:18:29;;;;;;;33.22;20.99;;;;;;;;;;357597;149;866438;-57
2021/11/24 00:19:31;;;;;;;35.08;21.79;;;;;;;;;;353789;149;865086;-56
2021/11/24 00:20:32;;;;;;;36.52;21.11;;;;;;;;;;357562;148;865864;-55
2021/11/24 00:21:34;;;;;;;33.29;20.53;;;;;;;;;;356302;149;864942;-55
2021/11/24 00:22:36;;;;;;;37.11;21.04;;;;;;;;;;355299;148;866774;-55
2021/11/24 00:23:37;;;;;;;35.87;21.13;;;;;;;;;;354394;149;866001;-55
2021/11/24 00:24:39;;;;;;;38.35;22.39;;;;;;;;;;354235;147;857303;-56
2021/11/24 00:25:41;;;;;;;34.53;20.65;;;;;;;;;;354842;150;865659;-55
2021/11/24 00:26:43;;;;;;;36.56;20.69;;;;;;;;;;356220;149;864689;-55
2021/11/24 00:27:46;;;;;;;36.36;21.03;;;;;;;;;;352597;150;858206;-57
2021/11/24 00:28:48;;;;;;;37.09;21.00;;;;;;;;;;356420;151;864732;-56
2021/11/24 00:29:52;;;;;;;32.94;20.74;;;;;;;;;;356118;151;864795;-57
2021/11/24 00:30:53;;;;;;;41.63;21.86;;;;;;;;;;354930;150;865345;-57
2021/11/24 00:31:55;;;;;;;35.29;20.05;;;;;;;;;;352519;152;866667;-57
2021/11/24 00:32:57;;;;;;;35.34;20.41;;;;;;;;;;350693;151;857253;-54
2021/11/24 00:34:00;;;;;;;33.79;20.59;;;;;;;;;;350434;150;866626;-56
2021/11/24 00:35:02;;;;;;;34.41;21.31;;;;;;;;;;351771;149;865541;-55
2021/11/24 00:36:06;;;;;;;33.25;20.45;;;;;;;;;;353659;150;859801;-55
2021/11/24 00:37:07;;;;;;;34.36;20.22;;;;;;;;;;353446;151;860162;-56
2021/11/24 00:38:09;;;;;;;36.30;21.51;;;;;;;;;;351955;150;865824;-54
2021/11/24 00:39:10;;;;;;;36.23;20.41;;;;;;;;;;351529;149;865024;-54
2021/11/24 00:40:12;;;;;;;39.12;21.47;;;;;;;;;;355444;151;857300;-55
2021/11/24 00:41:14;;;;;;;36.04;19.81;;;;;;;;;;352376;150;857425;-58
2021/11/24 00:42:16;;;;;;;34.51;18.69;;;;;;;;;;353099;149;857667;-55
2021/11/24 00:43:18;;;;;;;37.35;20.35;;;;;;;;;;355362;151;857407;-55
2021/11/24 00:44:20;;;;;;;30.62;18.55;;;;;;;;;;355180;149;865339;-55
2021/11/24 00:45:22;;;;;;;32.98;18.62;;;;;;;;;;353864;149;866652;-55
2021/11/24 00:46:24;;;;;;;33.13;19.11;;;;;;;;;;356822;149;867187;-55
2021/11/24 00:47:26;;;;;;;34.04;19.11;;;;;;;;;;354603;149;857504;-55
2021/11/24 00:48:27;;;;;;;29.31;18.37;;;;;;;;;;349786;150;866003;-55
2021/11/24 00:49:29;;;;;;;34.59;19.35;;;;;;;;;;355216;149;866714;-58
2021/11/24 00:50:32;;;;;;;29.46;18.65;;;;;;;;;;350828;151;867025;-55
2021/11/24 00:51:33;;;;;;;34.91;18.91;;;;;;;;;;354783;149;857287;-55
2021/11/24 00:52:35;;;;;;;34.05;18.75;;;;;;;;;;355754;149;866714;-55
2021/11/24 00:53:37;;;;;;;31.32;18.21;;;;;;;;;;354022;151;866776;-55
2021/11/24 00:54:38;;;;;;;27.39;18.01;;;;;;;;;;350361;149;865056;-55
2021/11/24 00:55:40;;;;;;;32.52;18.34;;;;;;;;;;353002;149;865962;-56
2021/11/24 00:56:42;;;;;;;29.91;17.18;;;;;;;;;;352941;151;864825;-56
2021/11/24 00:57:43;;;;;;;29.64;17.54;;;;;;;;;;353101;151;865792;-55
2021/11/24 00:58:45;;;;;;;32.59;18.11;;;;;;;;;;348797;150;864956;-55
2021/11/24 00:59:46;;;;;;;32.39;18.80;;;;;;;;;;356112;147;866622;-56
2021/11/24 01:00:48;;;;;;;31.45;17.94;;;;;;;;;;357153;150;865070;-55
2021/11/24 01:01:50;;;;;;;30.21;18.77;;;;;;;;;;354945;149;866812;-55
2021/11/24 01:02:52;;;;;;;29.79;18.63;;;;;;;;;;356322;148;857854;-55
2021/11/24 01:03:53;;;;;;;31.21;18.38;;;;;;;;;;355133;149;857123;-55
2021/11/24 01:04:55;;;;;;;34.84;19.69;;;;;;;;;;349423;151;867338;-56
2021/11/24 01:05:57;;;;;;;34.71;19.43;;;;;;;;;;351713;150;864989;-56
2021/11/24 01:06:58;;;;;;;32.41;18.60;;;;;;;;;;351316;149;867162;-57
2021/11/24 01:08:00;;;;;;;30.22;17.75;;;;;;;;;;355978;151;866333;-56
2021/11/24 01:09:02;;;;;;;30.22;17.80;;;;;;;;;;352902;151;857820;-56
2021/11/24 01:10:04;;;;;;;33.12;19.67;;;;;;;;;;350311;150;866815;-55
2021/11/24 01:11:06;;;;;;;38.51;19.27;;;;;;;;;;350360;151;859244;-56
2021/11/24 01:12:08;;;;;;;34.09;18.52;;;;;;;;;;349886;150;857969;-55
2021/11/24 01:13:10;;;;;;;36.47;18.70;;;;;;;;;;351426;149;865003;-55
2021/11/24 01:14:11;;;;;;;32.33;18.33;;;;;;;;;;350696;151;859044;-56
2021/11/24 01:15:13;;;;;;;36.90;19.21;;;;;;;;;;353533;151;859144;-56
2021/11/24 01:16:16;;;;;;;35.01;18.95;;;;;;;;;;351474;150;865712;-56
2021/11/24 01:17:17;;;;;;;34.14;18.04;;;;;;;;;;353204;150;865464;-56
2021/11/24 01:18:20;;;;;;;33.39;18.06;;;;;;;;;;350415;151;866671;-57
2021/11/24 01:19:22;;;;;;;32.26;17.84;;;;;;;;;;352292;151;866077;-57
2021/11/24 01:20:25;;;;;;;31.11;17.71;;;;;;;;;;351159;150;858492;-57
2021/11/24 01:21:26;;;;;;;33.55;18.41;;;;;;;;;;354025;151;857734;-57
2021/11/24 01:22:28;;;;;;;38.22;19.57;;;;;;;;;;349855;151;857783;-56
2021/11/24 01:23:30;;;;;;;35.48;18.95;;;;;;;;;;352121;150;857367;-55
2021/11/24 01:24:32;;;;;;;30.04;17.81;;;;;;;;;;350932;151;857407;-56
2021/11/24 01:25:33;;;;;;;31.33;18.31;;;;;;;;;;352879;151;865204;-56
2021/11/24 01:26:35;;;;;;;33.49;18.74;;;;;;;;;;352380;151;865269;-56
2021/11/24 01:27:37;;;;;;;32.80;17.86;;;;;;;;;;352928;150;866786;-56
2021/11/24 01:28:38;;;;;;;37.27;19.26;;;;;;;;;;351984;151;864949;-56
2021/11/24 01:29:40;;;;;;;36.25;19.30;;;;;;;;;;350368;151;866773;-55
2021/11/24 01:30:41;;;;;;;31.80;17.84;;;;;;;;;;350440;150;866836;-57
2021/11/24 01:31:43;;;;;;;34.36;18.71;;;;;;;;;;353991;150;864852;-57
2021/11/24 01:32:45;;;;;;;34.42;18.04;;;;;;;;;;353984;151;865858;-54
2021/11/24 01:33:46;;;;;;;32.52;17.73;;;;;;;;;;349698;150;864920;-56
2021/11/24 01:34:48;;;;;;;31.29;17.28;;;;;;;;;;355250;150;865875;-56
2021/11/24 01:35:49;;;;;;;37.01;17.82;;;;;;;;;;351221;150;864918;-56
2021/11/24 01:36:51;;;;;;;34.24;17.46;;;;;;;;;;350741;151;866420;-56
2021/11/24 01:37:53;;;;;;;32.90;17.04;;;;;;;;;;351187;150;864913;-56
2021/11/24 01:38:54;;;;;;;31.10;17.38;;;;;;;;;;351511;151;866150;-55
2021/11/24 01:39:56;;;;;;;30.43;17.16;;;;;;;;;;354156;151;864973;-58
2021/11/24 01:40:58;;;;;;;33.49;17.26;;;;;;;;;;349951;150;865965;-55
2021/11/24 01:41:59;;;;;;;36.50;18.40;;;;;;;;;;349718;150;864934;-56
2021/11/24 01:43:01;;;;;;;35.76;17.80;;;;;;;;;;350806;151;866207;-56
2021/11/24 01:44:03;;;;;;;40.54;19.16;;;;;;;;;;351708;150;864965;-56
2021/11/24 01:45:05;;;;;;;33.21;17.24;;;;;;;;;;353166;150;866137;-56
2021/11/24 01:46:07;;;;;;;31.71;17.86;;;;;;;;;;352502;152;864911;-56
2021/11/24 01:47:09;;;;;;;30.96;16.77;;;;;;;;;;350425;151;857697;-56
2021/11/24 01:48:10;;;;;;;35.00;17.87;;;;;;;;;;349816;150;865338;-56
2021/11/24 01:49:12;;;;;;;36.70;19.24;;;;;;;;;;349516;151;864877;-55
2021/11/24 01:50:14;;;;;;;31.42;17.15;;;;;;;;;;347831;152;866061;-57
2021/11/24 01:51:15;;;;;;;30.49;16.89;;;;;;;;;;351296;151;857397;-55
2021/11/24 01:52:17;;;;;;;33.13;16.96;;;;;;;;;;350701;150;865839;-56
2021/11/24 01:53:19;;;;;;;33.24;18.20;;;;;;;2.12;94.23;62472.14;351501;152;865475;-56
2021/11/24 01:54:20;;;;;;;27.70;15.61;;;;;;;;;;351810;151;866711;-56
2021/11/24 01:55:22;;;;;;;29.14;15.69;;;;;;;;;;349429;151;861053;-56
2021/11/24 01:56:24;;;;;;;32.98;16.32;;;;;;;;;;351026;151;864949;-55
2021/11/24 01:57:27;;;;;;;28.20;15.41;;;;;;;;;;349816;152;859402;-56
2021/11/24 01:58:29;;;;;;;29.61;16.26;;;;;;;;;;350761;151;857779;-56
2021/11/24 01:59:31;;;;;;;29.48;15.59;;;;;;;;;;355674;149;857468;-56
2021/11/24 02:00:32;;;;;;;31.72;15.60;;;;;;;;;;351728;149;867667;-56
2021/11/24 02:01:35;;;;;;;30.43;15.85;;;;;;;;;;352528;149;866069;-56
2021/11/24 02:02:36;;;;;;;28.42;16.47;;;;;;;;;;353111;149;857954;-56
2021/11/24 02:03:38;;;;;;;32.99;17.45;;;;;;;;;;355437;149;857685;-56
2021/11/24 02:04:40;;;;;;;30.57;16.23;;;;;;;;;;351599;150;866824;-57
2021/11/24 02:05:41;;;;;;;30.58;16.86;;;;;;;;;;354490;149;857578;-56
2021/11/24 02:06:43;;;;;;;32.31;16.09;;;;;;;;;;351855;150;865386;-55
2021/11/24 02:07:45;;;;;;;27.57;15.17;;;;;;;;;;353428;149;864907;-58
2021/11/24 02:08:46;;;;;;;27.77;15.45;;;;;;;;;;353531;149;865003;-55
2021/11/24 02:09:48;;;;;;;27.45;14.64;;;;;;;;;;356082;147;864931;-55
2021/11/24 02:10:50;;;;;;;22.29;13.90;;;;;;;;;;359889;148;866538;-54
2021/11/24 02:11:51;;;;;;;26.06;14.56;;;;;;;;;;357384;148;867427;-55
2021/11/24 02:12:53;;;;;;;26.86;14.89;;;;;;;;;;353564;149;866225;-55
2021/11/24 02:13:54;;;;;;;27.16;15.03;;;;;;;;;;354717;149;865837;-55
2021/11/24 02:14:56;;;;;;;24.35;13.51;;;;;;;;;;356835;147;865020;-55
2021/11/24 02:15:58;;;;;;;24.53;15.16;;;;;;;;;;355877;148;866399;-55
2021/11/24 02:16:59;;;;;;;27.96;14.37;;;;;;;;;;357724;148;857250;-56
2021/11/24 02:18:03;;;;;;;30.48;15.91;;;;;;;;;;359669;148;865017;-55
2021/11/24 02:19:05;;;;;;;27.34;15.19;;;;;;;;;;358461;147;858549;-56
2021/11/24 02:20:08;;;;;;;28.52;15.45;;;;;;;;;;357390;148;865454;-58
2021/11/24 02:21:11;;;;;;;30.61;15.88;;;;;;;;;;355160;147;865054;-56
2021/11/24 02:22:12;;;;;;;24.27;14.27;;;;;;;;;;357362;147;857565;-56
2021/11/24 02:23:14;;;;;;;28.24;15.91;;;;;;;;;;355563;147;857183;-56
2021/11/24 02:24:16;;;;;;;29.13;14.99;;;;;;;;;;354462;149;865120;-56
2021/11/24 02:25:17;;;;;;;29.73;15.22;;;;;;;;;;352093;151;857318;-56
2021/11/24 02:26:21;;;;;;;24.73;15.05;;;;;;;;;;352343;149;857197;-56
2021/11/24 02:27:23;;;;;;;25.25;14.83;;;;;;;;;;355799;148;858848;-56
2021/11/24 02:28:24;;;;;;;27.46;14.41;;;;;;;;;;355002;151;857559;-55
2021/11/24 02:29:26;;;;;;;26.34;15.55;;;;;;;;;;354010;150;865208;-55
2021/11/24 02:30:28;;;;;;;25.79;14.37;;;;;;;;;;355624;148;865102;-55
2021/11/24 02:31:30;;;;;;;27.02;14.27;;;;;;;;;;355365;151;866855;-56
2021/11/24 02:32:32;;;;;;;26.89;15.20;;;;;;;;;;354804;150;858239;-55
2021/11/24 02:33:33;;;;;;;27.19;14.69;;;;;;;;;;355499;150;866120;-55
2021/11/24 02:34:35;;;;;;;27.12;14.81;;;;;;;;;;352858;148;865113;-55
2021/11/24 02:35:37;;;;;;;25.91;14.74;;;;;;;;;;357338;150;857623;-57
2021/11/24 02:36:38;;;;;;;26.96;14.83;;;;;;;;;;356709;150;865844;-56
2021/11/24 02:37:40;;;;;;;29.90;15.25;;;;;;;;;;351444;150;865421;-56
2021/11/24 02:38:41;;;;;;;29.14;16.43;;;;;;;;;;359094;149;865697;-55
2021/11/24 02:39:43;;;;;;;26.62;15.01;;;;;;;;;;353281;149;866525;-55
2021/11/24 02:40:45;;;;;;;28.16;15.32;;;;;;;;;;353714;147;866553;-56
2021/11/24 02:41:47;;;;;;;31.77;16.56;;;;;;;;;;353849;150;865038;-56
2021/11/24 02:42:48;;;;;;;32.04;16.28;;;;;;;;;;354779;148;867131;-56
2021/11/24 02:43:50;;;;;;;32.80;17.59;;;;;;;;;;352085;148;866013;-56
2021/11/24 02:44:52;;;;;;;31.79;16.52;;;;;;;;;;353485;149;864867;-57
2021/11/24 02:45:53;;;;;;;31.48;16.61;;;;;;;;;;355813;148;865437;-56
2021/11/24 02:46:56;;;;;;;30.75;17.04;;;;;;;;;;358689;147;857207;-55
2021/11/24 02:47:58;;;;;;;33.73;17.89;;;;;;;;;;351635;149;866728;-56
2021/11/24 02:48:59;;;;;;;36.97;17.85;;;;;;;;;;355761;151;866028;-57
2021/11/24 02:50:03;;;;;;;30.89;17.26;;;;;;;;;;351389;149;865871;-56
2021/11/24 02:51:04;;;;;;;31.07;17.28;;;;;;;;;;355191;148;864875;-57
2021/11/24 02:52:06;;;;;;;28.39;17.18;;;;;;;;;;349791;151;857738;-55
2021/11/24 02:53:08;;;;;;;31.63;17.43;;;;;;;;;;356519;149;866891;-56
2021/11/24 02:54:10;;;;;;;30.71;16.23;;;;;;;;;;357897;148;864985;-56
2021/11/24 02:55:13;;;;;;;33.71;15.75;;;;;;;;;;358597;147;858689;-55
2021/11/24 02:56:16;;;;;;;29.47;16.86;;;;;;;;;;358858;148;857223;-56
2021/11/24 02:57:18;;;;;;;30.24;16.67;;;;;;;;;;357397;147;857388;-55
2021/11/24 02:58:19;;;;;;;27.01;15.76;;;;;;;;;;351974;149;864805;-55
2021/11/24 02:59:21;;;;;;;26.94;14.99;;;;;;;;;;352447;151;867177;-55
2021/11/24 03:00:24;;;;;;;26.25;15.57;;;;;;;;;;352727;150;864817;-54
2021/11/24 03:01:26;;;;;;;32.76;16.06;;;;;;;;;;356035;150;858253;-55
2021/11/24 03:02:27;;;;;;;30.06;16.86;;;;;;;;;;356724;148;865366;-54
2021/11/24 03:03:29;;;;;;;25.49;15.31;;;;;;;;;;351706;151;866799;-56
2021/11/24 03:04:31;;;;;;;26.66;15.07;;;;;;;;;;349952;150;866344;-55
2021/11/24 03:05:33;;;;;;;26.21;15.17;;;;;;;;;;354152;149;857392;-54
2021/11/24 03:06:35;;;;;;;25.77;15.44;;;;;;;;;;354300;149;860004;-53
2021/11/24 03:07:37;;;;;;;25.39;14.67;;;;;;;;;;351805;151;857682;-54
2021/11/24 03:08:39;;;;;;;27.09;15.29;;;;;;;;;;353217;149;857412;-55
2021/11/24 03:09:41;;;;;;;25.39;14.13;;;;;;;;;;354708;150;857140;-55
2021/11/24 03:10:42;;;;;;;27.06;14.64;;;;;;;;;;357997;149;865131;-53
2021/11/24 03:11:44;;;;;;;25.24;15.01;;;;;;;;;;356047;147;865031;-55
2021/11/24 03:12:45;;;;;;;24.59;13.98;;;;;;;;;;357272;149;865719;-55
2021/11/24 03:13:47;;;;;;;25.02;13.93;;;;;;;;;;351170;151;865286;-55
2021/11/24 03:14:48;;;;;;;28.29;14.80;;;;;;;;;;357651;149;866565;-55
2021/11/24 03:15:50;;;;;;;26.14;14.84;;;;;;;;;;356786;147;858413;-55
2021/11/24 03:16:52;;;;;;;21.71;12.82;;;;;;;;;;357407;148;865047;-55
2021/11/24 03:17:53;;;;;;;22.69;13.85;;;;;;;;;;354528;149;864872;-55
2021/11/24 03:18:55;;;;;;;27.25;13.80;;;;;;;;;;358738;147;857805;-56
2021/11/24 03:19:57;;;;;;;27.25;14.63;;;;;;;;;;359039;147;866064;-55
2021/11/24 03:20:59;;;;;;;28.40;15.17;;;;;;;;;;359040;148;866732;-57
2021/11/24 03:22:01;;;;;;;25.69;13.81;;;;;;;;;;358351;148;859184;-55
2021/11/24 03:23:02;;;;;;;26.34;14.45;;;;;;;;;;358162;148;864761;-55
2021/11/24 03:24:04;;;;;;;21.11;13.11;;;;;;;;;;360269;148;865307;-56
2021/11/24 03:25:06;;;;;;;25.08;14.15;;;;;;;;;;360005;148;865980;-56
2021/11/24 03:26:08;;;;;;;28.69;13.77;;;;;;;;;;358090;147;857205;-56
2021/11/24 03:27:10;;;;;;;20.57;13.44;;;;;;;;;;356664;148;857155;-56
2021/11/24 03:28:11;;;;;;;22.84;14.11;;;;;;;;;;355186;148;865183;-56
2021/11/24 03:29:13;;;;;;;24.49;13.56;;;;;;;;;;356675;148;857613;-55
2021/11/24 03:30:16;;;;;;;31.30;15.66;;;;;;;;;;357753;147;865652;-55
2021/11/24 03:31:18;;;;;;;32.46;16.45;;;;;;;;;;358734;149;864939;-55
2021/11/24 03:32:19;;;;;;;24.56;13.71;;;;;;;;;;355088;149;857426;-55
2021/11/24 03:33:21;;;;;;;21.79;12.27;;;;;;;;;;358000;147;864644;-55
2021/11/24 03:34:22;;;;;;;23.04;13.18;;;;;;;;;;356070;149;865497;-55
2021/11/24 03:35:24;;;;;;;22.48;13.19;;;;;;;;;;353085;152;864817;-55
2021/11/24 03:36:26;;;;;;;26.66;13.53;;;;;;;;;;353069;149;866752;-55
2021/11/24 03:37:28;;;;;;;25.24;13.01;;;;;;;;;;358026;147;859985;-55
2021/11/24 03:38:30;;;;;;;24.92;12.56;;;;;;;;;;354717;148;865733;-55
2021/11/24 03:39:31;;;;;;;33.81;16.57;;;;;;;;;;356463;149;864876;-55
2021/11/24 03:40:33;;;;;;;39.91;17.14;;;;;;;;;;352563;148;865147;-55
2021/11/24 03:41:35;;;;;;;26.61;13.48;;;;;;;;;;356569;150;864779;-54
2021/11/24 03:42:36;;;;;;;20.84;11.80;;;;;;;;;;356812;150;867398;-55
2021/11/24 03:43:38;;;;;;;21.77;12.19;;;;;;;;;;351943;150;864808;-54
2021/11/24 03:44:39;;;;;;;21.19;12.17;;;;;;;;;;354194;150;865801;-55
2021/11/24 03:45:42;;;;;;;21.96;12.69;;;;;;;;;;356221;151;864675;-55
2021/11/24 03:46:44;;;;;;;17.02;10.63;;;;;;;;;;354042;149;864994;-55
2021/11/24 03:47:46;;;;;;;22.01;11.81;;;;;;;;;;355178;149;861341;-54
2021/11/24 03:48:47;;;;;;;20.25;11.59;;;;;;;;;;355138;151;866504;-55
2021/11/24 03:49:49;;;;;;;16.71;11.21;;;;;;;;;;353070;149;866053;-55
2021/11/24 03:50:50;;;;;;;17.69;11.67;;;;;;;;;;353021;151;864858;-55
2021/11/24 03:51:52;;;;;;;18.56;11.39;;;;;;;;;;353466;152;865127;-55
2021/11/24 03:52:53;;;;;;;21.16;11.51;;;;;;;;;;360017;149;857107;-54
2021/11/24 03:53:55;;;;;;;19.45;12.58;;;;;;;;;;357616;148;865073;-55
2021/11/24 03:54:57;;;;;;;19.63;11.99;;;;;;;;;;359274;147;864815;-55
2021/11/24 03:55:58;;;;;;;22.27;12.07;;;;;;;;;;355993;151;865576;-55
2021/11/24 03:57:00;;;;;;;18.29;11.47;;;;;;;;;;356943;147;864791;-55
2021/11/24 03:58:02;;;;;;;20.75;12.20;;;;;;;;;;356698;148;868161;-55
2021/11/24 03:59:04;;;;;;;19.77;11.63;;;;;;;;;;359013;147;864667;-56
2021/11/24 04:00:12;;;;;;;21.50;12.50;;;;;;;;;;360917;148;857396;-55
2021/11/24 04:01:14;;;;;;;21.07;12.12;;;;;;;;;;357135;148;859301;-56
2021/11/24 04:02:15;;;;;;;18.61;11.65;;;;;;;;;;358658;149;858643;-56
2021/11/24 04:03:17;;;;;;;20.66;11.89;;;;;;;;;;358976;149;864626;-55
2021/11/24 04:04:19;;;;;;;20.94;11.27;;;;;;;;;;356923;149;865582;-55
2021/11/24 04:05:20;;;;;;;18.85;12.79;;;;;;;;;;356879;148;864770;-55
2021/11/24 04:06:25;;;;;;;20.23;12.02;;;;;;;;;;355276;148;865564;-55
2021/11/24 04:07:25;;;;;;;18.89;11.68;;;;;;;;;;355956;147;864781;-55
2021/11/24 04:08:27;;;;;;;22.04;12.86;;;;;;;;;;356609;147;860840;-56
2021/11/24 04:09:29;;;;;;;18.35;12.52;;;;;;;;;;355400;148;864844;-57
2021/11/24 04:10:31;;;;;;;21.97;12.35;;;;;;;;;;357113;147;866187;-55
2021/11/24 04:11:32;;;;;;;16.67;11.49;;;;;;;;;;354864;148;856937;-56
2021/11/24 04:12:34;;;;;;;18.68;11.56;;;;;;;;;;357219;147;865483;-55
2021/11/24 04:13:36;;;;;;;19.84;12.65;;;;;;;;;;356621;148;864946;-56
2021/11/24 04:14:38;;;;;;;19.63;11.86;;;;;;;;;;356044;147;857188;-55
2021/11/24 04:15:40;;;;;;;18.63;11.27;;;;;;;;;;356490;148;857164;-54
2021/11/24 04:16:44;;;;;;;21.09;11.80;;;;;;;;;;352645;150;866132;-55
2021/11/24 04:17:45;;;;;;;20.01;12.46;;;;;;;;;;357288;147;857254;-54
2021/11/24 04:18:50;;;;;;;18.53;10.76;;;;;;;;;;357314;147;858548;-54
2021/11/24 04:19:51;;;;;;;19.04;11.22;;;;;;;;;;352347;149;867132;-55
2021/11/24 04:20:56;;;;;;;18.52;12.04;;;;;;;;;;352668;149;857571;-56
2021/11/24 04:21:57;;;;;;;16.18;10.67;;;;;;;;;;352787;149;865325;-56
2021/11/24 04:22:58;;;;;;;19.13;11.41;;;;;;;;;;352860;150;858365;-53
2021/11/24 04:24:00;;;;;;;16.22;10.86;;;;;;;;;;350699;149;865433;-55
2021/11/24 04:25:01;;;;;;;18.98;11.60;;;;;;;;;;354543;150;864968;-56
2021/11/24 04:26:03;;;;;;;18.97;11.29;;;;;;;;;;352637;149;866716;-56
2021/11/24 04:27:05;;;;;;;19.39;11.36;;;;;;;;;;350480;151;864579;-57
2021/11/24 04:28:06;;;;;;;17.47;11.41;;;;;;;;;;348864;152;866250;-57
2021/11/24 04:29:08;;;;;;;18.35;11.59;;;;;;;;;;350988;151;865373;-56
2021/11/24 04:30:10;;;;;;;15.99;10.57;;;;;;;;;;350610;151;864626;-59
2021/11/24 04:31:12;;;;;;;20.24;11.66;;;;;;;;;;350711;151;857618;-56
2021/11/24 04:32:16;;;;;;;19.25;12.15;;;;;;;;;;352671;150;858055;-57
2021/11/24 04:33:17;;;;;;;17.37;10.51;;;;;;;;;;355149;147;864769;-54
2021/11/24 04:34:19;;;;;;;18.47;10.79;;;;;;;;;;354039;151;857358;-56
2021/11/24 04:35:20;;;;;;;17.89;10.49;;;;;;;;;;356946;149;857698;-57
2021/11/24 04:36:22;;;;;;;18.03;11.86;;;;;;;;;;355638;148;865226;-59
2021/11/24 04:37:24;;;;;;;19.81;11.19;;;;;;;;;;353670;150;857184;-55
2021/11/24 04:38:27;;;;;;;17.08;11.62;;;;;;;;;;354921;149;864904;-57
2021/11/24 04:39:29;;;;;;;17.08;10.66;;;;;;;;;;355352;150;865075;-58
2021/11/24 04:40:32;;;;;;;15.10;10.53;;;;;;;;;;355527;150;857949;-55
2021/11/24 04:41:33;;;;;;;15.41;10.15;;;;;;;;;;354648;150;857715;-56
2021/11/24 04:42:37;;;;;;;18.03;11.15;;;;;;;;;;355526;150;858890;-57
2021/11/24 04:43:42;;;;;;;19.89;11.25;;;;;;;;;;354122;150;865269;-59
2021/11/24 04:44:42;;;;;;;21.35;11.85;;;;;;;;;;354487;150;859143;-55
2021/11/24 04:45:44;;;;;;;20.64;11.54;;;;;;;;;;354307;150;865424;-58
2021/11/24 04:46:46;;;;;;;16.31;10.83;;;;;;;;;;354501;148;857994;-55
2021/11/24 04:47:47;;;;;;;17.80;10.72;;;;;;;;;;355162;150;857525;-55
2021/11/24 04:48:49;;;;;;;17.51;10.86;;;;;;;;;;356431;150;866767;-56
2021/11/24 04:49:51;;;;;;;16.85;10.83;;;;;;;;;;358437;148;865922;-57
2021/11/24 04:50:53;;;;;;;17.92;10.77;;;;;;;;;;358185;148;859287;-59
2021/11/24 04:51:55;;;;;;;21.43;10.89;;;;;;;;;;346289;151;857984;-59
2021/11/24 04:52:56;;;;;;;18.08;11.38;;;;;;;;;;355377;148;864700;-59
2021/11/24 04:53:58;;;;;;;24.61;10.89;;;;;;;;;;356810;148;866423;-58
2021/11/24 04:54:59;;;;;;;17.26;11.01;;;;;;;;;;357828;150;864918;-59
2021/11/24 04:56:01;;;;;;;17.19;10.33;;;;;;;;;;359176;149;866239;-59
2021/11/24 04:57:03;;;;;;;17.16;10.63;;;;;;;;;;349981;150;857152;-58
2021/11/24 04:58:05;;;;;;;18.37;11.27;;;;;;;;;;351472;151;860731;-55
2021/11/24 04:59:07;;;;;;;17.36;10.73;;;;;;;;;;355009;148;858663;-54
2021/11/24 05:00:15;;;;;;;19.66;11.53;;;;;;;;;;352674;149;865038;-54
2021/11/24 05:01:15;;;;;;;16.55;10.75;;;;;;;;;;350611;150;864754;-56
2021/11/24 05:02:16;;;;;;;17.55;11.06;;;;;;;;;;351287;151;859044;-56
2021/11/24 05:03:18;;;;;;;17.00;10.82;;;;;;;;;;354766;149;857748;-56
2021/11/24 05:04:21;;;;;;;17.09;10.60;;;;;;;;;;352264;148;866118;-55
2021/11/24 05:05:28;;;;;;;18.66;10.93;;;;;;;;;;346462;154;859568;-56
2021/11/24 05:06:27;;;;;;;21.22;12.04;;;;;;;;;;344249;150;867210;-54
2021/11/24 05:07:29;;;;;;;20.59;11.33;;;;;;;;;;351021;150;866398;-55
2021/11/24 05:08:30;;;;;;;20.15;10.72;;;;;;;;;;353348;150;865107;-55
2021/11/24 05:09:32;;;;;;;19.31;10.76;;;;;;;;;;351917;149;864734;-55
2021/11/24 05:10:34;;;;;;;17.64;10.76;;;;;;;;;;352896;149;866746;-55
2021/11/24 05:11:36;;;;;;;15.90;10.06;;;;;;;;;;350961;149;860418;-55
2021/11/24 05:12:38;;;;;;;17.17;10.19;;;;;;;;;;352164;152;856802;-55
2021/11/24 05:13:41;;;;;;;19.67;11.65;;;;;;;;;;351520;149;858726;-55
2021/11/24 05:14:43;;;;;;;18.31;11.53;;;;;;;;;;350782;149;857727;-55
2021/11/24 05:15:45;;;;;;;17.04;10.71;;;;;;;;;;351704;149;866095;-55
2021/11/24 05:16:48;;;;;;;18.93;11.80;;;;;;;;;;351480;152;857720;-54
2021/11/24 05:17:55;;;;;;;15.49;10.10;;;;;;;;;;351854;149;858579;-54
2021/11/24 05:18:54;;;;;;;17.05;9.58;;;;;;;;;;351953;149;858329;-55
2021/11/24 05:19:56;;;;;;;18.94;11.54;;;;;;;;;;352733;152;858585;-55
2021/11/24 05:21:03;;;;;;;16.20;10.39;;;;;;;;;;350398;149;865762;-55
2021/11/24 05:22:01;;;;;;;18.35;10.85;;;;;;;;;;351475;149;857660;-55
2021/11/24 05:23:04;;;;;;;20.53;11.27;;;;;;;;;;352389;151;866421;-55
2021/11/24 05:24:06;;;;;;;18.13;11.05;;;;;;;;;;348165;150;857129;-59
2021/11/24 05:25:08;;;;;;;19.24;11.65;;;;;;;;;;350141;151;859609;-62
2021/11/24 05:26:10;;;;;;;22.99;10.98;;;;;;;;;;347599;150;864734;-65
2021/11/24 05:27:12;;;;;;;18.85;11.33;;;;;;;;;;351394;151;857195;-60
2021/11/24 05:28:14;;;;;;;16.70;10.84;;;;;;;;;;348287;149;857982;-60
2021/11/24 05:29:15;;;;;;;16.84;10.64;;;;;;;;;;348785;150;864988;-59
2021/11/24 05:30:17;;;;;;;19.19;10.45;;;;;;;;;;349035;150;866653;-60
2021/11/24 05:31:19;;;;;;;19.96;11.19;;;;;;;;;;347803;149;857361;-55
2021/11/24 05:32:21;;;;;;;18.35;10.93;;;;;;;;;;348034;150;866428;-55
2021/11/24 05:33:22;;;;;;;15.26;9.39;;;;;;;;;;348711;152;858630;-55
2021/11/24 05:34:24;;;;;;;19.19;10.94;;;;;;;;;;349709;149;864957;-56
2021/11/24 05:35:26;;;;;;;17.83;10.79;;;;;;;;;;349621;150;864675;-55
2021/11/24 05:36:28;;;;;;;17.81;10.77;;;;;;;;;;350496;150;865191;-56
2021/11/24 05:37:30;;;;;;;19.06;11.78;;;;;;;;;;348898;150;857897;-54
2021/11/24 05:38:32;;;;;;;17.31;10.89;;;;;;;;;;350008;152;866214;-56
2021/11/24 05:39:35;;;;;;;18.31;10.45;;;;;;;;;;353642;150;857706;-57
2021/11/24 05:40:36;;;;;;;17.25;9.38;;;;;;;;;;356050;150;858703;-57
2021/11/24 05:41:42;;;;;;;16.86;10.19;;;;;;;;;;348778;150;857680;-57
2021/11/24 05:42:46;;;;;;;18.14;11.28;;;;;;;;;;348363;152;865282;-57
2021/11/24 05:43:45;;;;;;;18.57;11.24;;;;;;;;;;344044;155;866679;-56
2021/11/24 05:44:49;;;;;;;19.18;11.24;;;;;;;;;;344763;153;864723;-58
2021/11/24 05:46:57;;;;;;;16.38;10.29;;;;;;;;;;348063;152;857245;-57
2021/11/24 05:48:02;;;;;;;20.31;11.42;;;;;;;;;;352185;149;865810;-58
2021/11/24 05:49:02;;;;;;;19.39;11.44;;;;;;;;;;348632;149;857726;-56
2021/11/24 05:50:04;;;;;;;19.40;11.85;;;;;;;;;;349106;150;858324;-57
2021/11/24 05:51:06;;;;;;;18.95;11.15;;;;;;;;;;351903;149;864891;-57
2021/11/24 05:52:08;;;;;;;18.14;10.85;;;;;;;;;;351200;149;857429;-57
2021/11/24 05:53:09;;;;;;;17.04;10.79;;;;;;;;;;350536;150;864569;-57
2021/11/24 05:54:11;;;;;;;19.21;10.26;;;;;;;;;;348347;150;866816;-56
2021/11/24 05:55:13;;;;;;;17.93;9.89;;;;;;;;;;349078;150;864963;-56
2021/11/24 05:56:15;;;;;;;18.64;10.87;;;;;;;;;;350578;150;857216;-56